Terminal Aerodrome Forecast
Issued by NWS Amarillo, TX

Home | Current Version | Previous Version | Text Only | Print | Product List | Glossary On
Versions: 1 2 3 4 5 6 7 8 9 10 11 12 13 14 15 16 17 18
239
FTUS44 KAMA 241943 AAA
TAFAMA
TAF AMD
KAMA 241943Z 2420/2518 18009KT P6SM FEW100
     FM250900 36012KT P6SM BKN040 PROB30 2509/2512 2SM -TSRA
      BKN030CB
     FM251400 02023G31KT P6SM BKN250=

USA.gov is the U.S. government's official web portal to all federal, state and local government web resources and services.